createdAt,value
2024-01-09T00:00:24.170Z,101719.41
2024-01-09T00:02:53.219Z,101716.66
2024-01-09T00:05:21.683Z,101730.84
2024-01-09T00:07:50.038Z,101711.63
2024-01-09T00:10:18.821Z,101730.13
2024-01-09T00:12:47.130Z,101730.66
2024-01-09T00:15:17.386Z,101719.41
2024-01-09T00:17:46.329Z,101722.88
2024-01-09T00:20:15.945Z,101716.16
2024-01-09T00:22:44.865Z,101716.69
2024-01-09T00:25:13.619Z,101706.34
2024-01-09T00:27:42.385Z,101714.53
2024-01-09T00:30:12.483Z,101714.53
2024-01-09T00:32:48.341Z,101702.56
2024-01-09T00:35:17.547Z,101705.81
2024-01-09T00:37:46.365Z,101705.81
2024-01-09T00:40:15.073Z,101700.00
2024-01-09T00:42:43.435Z,101702.56
2024-01-09T00:45:12.788Z,101707.81
2024-01-09T00:47:42.881Z,101696.38
2024-01-09T00:50:12.063Z,101698.53
2024-01-09T00:52:40.567Z,101699.66
2024-01-09T00:55:09.640Z,101702.19
2024-01-09T00:57:39.058Z,101699.47
2024-01-09T01:00:09.368Z,101698.53
2024-01-09T01:02:37.887Z,101700.16
2024-01-09T01:05:08.971Z,101701.28
2024-01-09T01:07:37.461Z,101698.00
2024-01-09T01:10:06.840Z,101703.28
2024-01-09T01:12:37.392Z,101700.38
2024-01-09T01:15:07.896Z,101699.25
2024-01-09T01:17:37.330Z,101698.19
2024-01-09T01:20:09.197Z,101700.03
2024-01-09T01:22:37.944Z,101700.03
2024-01-09T01:25:07.965Z,101713.25
2024-01-09T01:27:36.364Z,101711.63
2024-01-09T01:30:06.058Z,101709.78
2024-01-09T01:32:34.664Z,101698.53
2024-01-09T01:35:03.375Z,101699.63
2024-01-09T01:37:33.295Z,101690.19
2024-01-09T01:40:01.794Z,101708.16
2024-01-09T01:42:30.198Z,101707.97
2024-01-09T01:44:59.565Z,101692.75
2024-01-09T01:47:28.340Z,101690.91
2024-01-09T01:49:57.521Z,101705.09
2024-01-09T01:52:26.459Z,101703.66
2024-01-09T01:54:56.461Z,101705.81
2024-01-09T01:57:24.908Z,101708.19
2024-01-09T01:59:55.035Z,101707.09
2024-01-09T02:02:24.188Z,101704.53
2024-01-09T02:04:52.802Z,101710.53
2024-01-09T02:07:22.792Z,101713.25
2024-01-09T02:09:54.303Z,101708.91
2024-01-09T02:12:24.657Z,101719.22
2024-01-09T02:14:53.189Z,101716.31
2024-01-09T02:17:21.748Z,101722.13
2024-01-09T02:19:50.219Z,101713.44
2024-01-09T02:22:18.594Z,101708.88
2024-01-09T02:24:47.042Z,101707.25
2024-01-09T02:27:22.544Z,101708.16
2024-01-09T02:29:53.242Z,101712.16
2024-01-09T02:32:23.197Z,101710.16
2024-01-09T02:34:53.135Z,101709.25
2024-01-09T02:37:21.790Z,101707.63
2024-01-09T02:39:50.547Z,101702.38
2024-01-09T02:42:19.072Z,101706.88
2024-01-09T02:44:47.667Z,101716.13
2024-01-09T02:47:17.833Z,101709.25
2024-01-09T02:49:46.441Z,101711.94
2024-01-09T02:52:14.894Z,101700.00
2024-01-09T02:54:43.333Z,101703.63
2024-01-09T02:57:12.258Z,101705.09
2024-01-09T02:59:41.109Z,101698.19
2024-01-09T03:02:09.645Z,101705.81
2024-01-09T03:04:39.591Z,101710.16
2024-01-09T03:07:08.394Z,101700.72
2024-01-09T03:09:38.859Z,101700.00
2024-01-09T03:12:08.266Z,101705.09
2024-01-09T03:14:39.648Z,101709.25
2024-01-09T03:17:08.115Z,101705.63
2024-01-09T03:19:37.972Z,101707.44
2024-01-09T03:22:06.625Z,101706.53
2024-01-09T03:24:35.342Z,101698.91
2024-01-09T03:27:04.068Z,101699.63
2024-01-09T03:29:32.672Z,101699.44
2024-01-09T03:32:01.858Z,101694.22
2024-01-09T03:34:30.463Z,101687.31
2024-01-09T03:37:00.244Z,101690.56
2024-01-09T03:39:28.654Z,101693.09
2024-01-09T03:41:57.158Z,101691.09
2024-01-09T03:44:26.048Z,101684.75
2024-01-09T03:46:54.584Z,101692.56
2024-01-09T03:49:23.324Z,101696.91
2024-01-09T03:51:51.963Z,101697.09
2024-01-09T03:54:21.995Z,101693.63
2024-01-09T03:56:50.733Z,101695.09
2024-01-09T03:59:19.568Z,101681.69
2024-01-09T04:01:48.261Z,101689.09
2024-01-09T04:04:16.898Z,101686.38
2024-01-09T04:06:45.596Z,101681.84
2024-01-09T04:09:14.571Z,101682.91
2024-01-09T04:11:46.108Z,101677.69
2024-01-09T04:14:15.595Z,101686.94
2024-01-09T04:16:48.021Z,101692.91
2024-01-09T04:19:16.503Z,101685.31
2024-01-09T04:21:45.225Z,101689.84
2024-01-09T04:24:13.740Z,101689.84
2024-01-09T04:26:42.513Z,101695.63
2024-01-09T04:29:12.700Z,101686.53
2024-01-09T04:31:41.165Z,101685.81
2024-01-09T04:34:10.386Z,101685.13
2024-01-09T04:36:38.805Z,101688.75
2024-01-09T04:39:07.242Z,101687.28
2024-01-09T04:41:35.751Z,101688.38
2024-01-09T04:44:04.851Z,101681.50
2024-01-09T04:46:34.732Z,101686.03
2024-01-09T04:49:05.137Z,101681.13
2024-01-09T04:51:33.643Z,101665.91
2024-01-09T04:54:02.063Z,101674.25
2024-01-09T04:56:30.715Z,101674.41
2024-01-09T04:59:00.238Z,101665.91
2024-01-09T05:01:29.489Z,101669.19
2024-01-09T05:03:59.262Z,101670.97
2024-01-09T05:06:28.112Z,101676.03
2024-01-09T05:08:56.607Z,101676.41
2024-01-09T05:11:25.142Z,101661.91
2024-01-09T05:13:53.664Z,101676.22
2024-01-09T05:16:22.159Z,101666.97
2024-01-09T05:18:50.937Z,101674.59
2024-01-09T05:21:20.981Z,101684.03
2024-01-09T05:23:49.565Z,101669.88
2024-01-09T05:26:19.934Z,101671.72
2024-01-09T05:28:48.996Z,101671.72
2024-01-09T05:31:17.506Z,101669.38
2024-01-09T05:33:46.689Z,101673.53
2024-01-09T05:36:19.307Z,101667.53
2024-01-09T05:38:49.213Z,101665.53
2024-01-09T05:41:21.899Z,101670.41
2024-01-09T05:43:50.627Z,101664.47
2024-01-09T05:46:19.546Z,101670.97
2024-01-09T05:48:48.405Z,101659.72
2024-01-09T05:51:17.289Z,101663.72
2024-01-09T05:53:51.432Z,101669.53
2024-01-09T05:56:20.504Z,101663.34
2024-01-09T05:58:49.037Z,101670.03
2024-01-09T06:01:18.268Z,101673.50
2024-01-09T06:03:46.835Z,101677.84
2024-01-09T06:06:15.537Z,101679.13
2024-01-09T06:08:44.590Z,101692.16
2024-01-09T06:11:14.493Z,101685.09
2024-01-09T06:13:43.015Z,101688.53
2024-01-09T06:16:12.099Z,101687.81
2024-01-09T06:18:40.657Z,101685.09
2024-01-09T06:21:09.519Z,101682.19
2024-01-09T06:23:37.929Z,101684.00
2024-01-09T06:26:06.479Z,101688.69
2024-01-09T06:28:37.052Z,101686.16
2024-01-09T06:31:05.890Z,101690.16
2024-01-09T06:33:34.593Z,101690.88
2024-01-09T06:36:03.155Z,101691.59
2024-01-09T06:38:31.610Z,101694.13
2024-01-09T06:41:01.115Z,101697.38
2024-01-09T06:43:32.191Z,101697.38
2024-01-09T06:46:02.105Z,101694.69
2024-01-09T06:48:33.565Z,101703.91
2024-01-09T06:51:02.191Z,101704.81
2024-01-09T06:53:32.581Z,101703.16
2024-01-09T06:56:01.333Z,101698.47
2024-01-09T06:58:29.663Z,101700.78
2024-01-09T07:00:58.572Z,101699.91
2024-01-09T07:03:28.428Z,101707.69
2024-01-09T07:05:56.884Z,101710.94
2024-01-09T07:08:25.488Z,101697.38
2024-01-09T07:10:54.257Z,101707.69
2024-01-09T07:13:23.194Z,101715.13
2024-01-09T07:15:52.135Z,101705.00
2024-01-09T07:18:20.862Z,101708.41
2024-01-09T07:20:51.007Z,101701.34
2024-01-09T07:23:20.720Z,101704.25
2024-01-09T07:25:49.811Z,101705.88
2024-01-09T07:28:18.367Z,101710.75
2024-01-09T07:30:47.183Z,101717.25
2024-01-09T07:33:15.937Z,101725.75
2024-01-09T07:35:44.513Z,101713.09
2024-01-09T07:38:14.510Z,101717.25
2024-01-09T07:40:43.515Z,101720.16
2024-01-09T07:43:12.028Z,101721.56
2024-01-09T07:45:40.322Z,101722.31
2024-01-09T07:48:09.413Z,101721.72
2024-01-09T07:50:38.064Z,101731.88
2024-01-09T07:53:06.535Z,101742.56
2024-01-09T07:55:36.496Z,101740.38
2024-01-09T07:58:07.135Z,101742.72
2024-01-09T08:00:35.659Z,101730.97
2024-01-09T08:03:07.213Z,101741.09
2024-01-09T08:05:36.393Z,101747.63
2024-01-09T08:08:05.788Z,101745.81
2024-01-09T08:10:35.649Z,101740.75
2024-01-09T08:13:04.299Z,101739.84
2024-01-09T08:15:32.661Z,101734.03
2024-01-09T08:18:01.175Z,101740.03
2024-01-09T08:20:30.227Z,101746.91
2024-01-09T08:22:59.157Z,101747.63
2024-01-09T08:25:27.992Z,101739.84
2024-01-09T08:27:57.938Z,101729.69
2024-01-09T08:30:26.423Z,101729.88
2024-01-09T08:32:55.028Z,101733.50
2024-01-09T08:35:23.664Z,101741.31
2024-01-09T08:37:52.097Z,101732.78
2024-01-09T08:40:20.630Z,101742.41
2024-01-09T08:42:49.060Z,101741.69
2024-01-09T08:45:19.937Z,101740.94
2024-01-09T08:47:48.389Z,101733.19
2024-01-09T08:50:17.190Z,101736.44
2024-01-09T08:52:46.336Z,101740.06
2024-01-09T08:55:14.716Z,101746.00
2024-01-09T08:57:43.758Z,101746.91
2024-01-09T09:00:14.422Z,101741.84
2024-01-09T09:02:44.472Z,101735.34
2024-01-09T09:05:13.311Z,101740.44
2024-01-09T09:07:41.777Z,101741.34
2024-01-09T09:10:10.349Z,101739.00
2024-01-09T09:12:38.943Z,101748.94
2024-01-09T09:15:08.426Z,101740.22
2024-01-09T09:17:37.057Z,101745.50
2024-01-09T09:20:08.607Z,101739.53
2024-01-09T09:22:37.167Z,101736.78
2024-01-09T09:25:06.983Z,101735.00
2024-01-09T09:27:35.867Z,101744.03
2024-01-09T09:30:06.336Z,101741.69
2024-01-09T09:32:35.304Z,101735.88
2024-01-09T09:35:05.018Z,101731.00
2024-01-09T09:37:35.858Z,101737.53
2024-01-09T09:40:04.766Z,101746.59
2024-01-09T09:42:33.791Z,101735.44
2024-01-09T09:45:03.895Z,101737.22
2024-01-09T09:47:34.025Z,101743.19
2024-01-09T09:50:02.590Z,101744.09
2024-01-09T09:52:34.706Z,101744.31
2024-01-09T09:55:03.275Z,101735.06
2024-01-09T09:57:31.844Z,101731.81
2024-01-09T10:00:00.468Z,101735.25
2024-01-09T10:02:31.775Z,101739.78
2024-01-09T10:05:11.509Z,101729.13
2024-01-09T10:07:49.706Z,101726.72
2024-01-09T10:10:21.991Z,101727.13
2024-01-09T10:12:50.978Z,101732.56
2024-01-09T10:15:19.618Z,101732.75
2024-01-09T10:17:49.079Z,101735.47
2024-01-09T10:20:17.685Z,101724.78
2024-01-09T10:22:49.217Z,101726.78
2024-01-09T10:25:19.127Z,101721.00
2024-01-09T10:27:48.525Z,101713.38
2024-01-09T10:30:17.645Z,101710.84
2024-01-09T10:32:48.466Z,101715.22
2024-01-09T10:35:16.883Z,101719.72
2024-01-09T10:37:47.455Z,101711.75
2024-01-09T10:40:16.674Z,101720.28
2024-01-09T10:42:49.036Z,101719.03
2024-01-09T10:45:20.528Z,101716.28
2024-01-09T10:47:50.501Z,101723.00
2024-01-09T10:50:20.380Z,101705.44
2024-01-09T10:52:51.861Z,101705.06
2024-01-09T10:55:22.829Z,101697.09
2024-01-09T10:57:52.146Z,101702.53
2024-01-09T11:00:21.619Z,101702.16
2024-01-09T11:02:50.300Z,101693.13
2024-01-09T11:05:19.290Z,101695.28
2024-01-09T11:07:53.347Z,101693.13
2024-01-09T11:10:23.644Z,101689.13
2024-01-09T11:12:54.558Z,101682.59
2024-01-09T11:15:27.893Z,101677.53
2024-01-09T11:18:03.192Z,101685.16
2024-01-09T11:20:32.866Z,101664.66
2024-01-09T11:23:02.780Z,101666.66
2024-01-09T11:25:32.383Z,101656.66
2024-01-09T11:28:01.774Z,101656.84
2024-01-09T11:30:36.929Z,101641.81
2024-01-09T11:33:30.211Z,101643.63
2024-01-09T11:36:06.122Z,101642.16
2024-01-09T11:38:36.551Z,101653.59
2024-01-09T11:41:06.491Z,101639.59
2024-01-09T11:44:02.884Z,101654.66
2024-01-09T11:46:35.289Z,101637.97
2024-01-09T11:49:06.135Z,101636.88
2024-01-09T11:51:36.418Z,101619.44
2024-01-09T11:54:10.139Z,101621.44
2024-01-09T11:56:39.689Z,101618.34
2024-01-09T11:59:08.225Z,101633.22
2024-01-09T12:01:37.139Z,101614.72
2024-01-09T12:04:06.325Z,101615.06
2024-01-09T12:06:34.722Z,101618.69
2024-01-09T12:09:03.860Z,101608.69
2024-01-09T12:11:33.963Z,101609.25
2024-01-09T12:14:02.961Z,101595.78
2024-01-09T12:16:33.780Z,101597.97
2024-01-09T12:19:03.750Z,101590.69
2024-01-09T12:21:34.903Z,101602.13
2024-01-09T12:26:40.041Z,101582.84
2024-01-09T12:29:09.100Z,101588.84
2024-01-09T12:31:37.649Z,101592.31
2024-01-09T12:34:06.602Z,101583.22
2024-01-09T12:36:35.756Z,101577.56
2024-01-09T12:39:04.689Z,101578.66
2024-01-09T12:41:33.385Z,101589.88
2024-01-09T12:44:10.840Z,101566.28
2024-01-09T12:46:39.419Z,101571.38
2024-01-09T12:49:10.078Z,101562.47
2024-01-09T12:51:39.011Z,101562.63
2024-01-09T12:54:07.746Z,101566.81
2024-01-09T12:56:36.619Z,101546.66
2024-01-09T12:59:05.307Z,101547.03
2024-01-09T13:01:35.216Z,101547.16
2024-01-09T13:04:03.686Z,101548.44
2024-01-09T13:06:32.277Z,101544.41
2024-01-09T13:09:00.914Z,101541.16
2024-01-09T13:11:29.423Z,101544.78
2024-01-09T13:14:00.215Z,101539.69
2024-01-09T13:16:28.662Z,101536.56
2024-01-09T13:18:58.639Z,101555.63
2024-01-09T13:21:27.212Z,101547.28
2024-01-09T13:26:24.837Z,101567.41
2024-01-09T13:31:24.895Z,101551.25
2024-01-09T13:33:53.849Z,101556.34
2024-01-09T13:36:24.409Z,101553.97
2024-01-09T13:38:53.005Z,101544.66
2024-01-09T13:41:21.640Z,101555.03
2024-01-09T13:43:50.373Z,101549.75
2024-01-09T13:46:19.156Z,101544.66
2024-01-09T13:48:48.271Z,101547.97
2024-01-09T13:53:52.913Z,101554.84
2024-01-09T13:56:21.505Z,101554.28
2024-01-09T13:58:50.135Z,101550.44
2024-01-09T14:01:27.169Z,101561.72
2024-01-09T14:04:03.974Z,101550.09
2024-01-09T14:06:32.745Z,101542.59
2024-01-09T14:09:02.844Z,101537.69
2024-01-09T14:11:31.732Z,101543.16
2024-01-09T14:14:00.608Z,101552.56
2024-01-09T14:16:29.412Z,101545.09
2024-01-09T14:18:58.910Z,101537.47
2024-01-09T14:21:27.610Z,101546.19
2024-01-09T14:23:56.026Z,101544.38
2024-01-09T14:26:26.842Z,101538.38
2024-01-09T14:28:56.551Z,101542.38
2024-01-09T14:31:25.293Z,101524.56
2024-01-09T14:33:53.852Z,101532.06
2024-01-09T14:36:22.575Z,101529.66
2024-01-09T14:38:51.165Z,101524.56
2024-01-09T14:41:19.791Z,101524.44
2024-01-09T14:43:49.678Z,101521.88
2024-01-09T14:46:19.122Z,101519.50
2024-01-09T14:48:47.749Z,101522.78
2024-01-09T14:51:16.541Z,101525.34
2024-01-09T14:53:45.433Z,101523.53
2024-01-09T14:56:19.090Z,101528.78
2024-01-09T14:58:49.046Z,101535.50
2024-01-09T15:01:17.751Z,101523.53
2024-01-09T15:03:47.180Z,101522.78
2024-01-09T15:06:16.034Z,101525.34
2024-01-09T15:08:48.396Z,101529.50
2024-01-09T15:11:17.494Z,101527.69
2024-01-09T15:13:50.743Z,101532.59
2024-01-09T15:16:19.354Z,101528.97
2024-01-09T15:18:51.303Z,101515.22
2024-01-09T15:21:19.888Z,101531.91
2024-01-09T15:23:50.453Z,101534.47
2024-01-09T15:26:20.084Z,101521.56
2024-01-09T15:28:49.959Z,101516.66
2024-01-09T15:31:22.064Z,101521.75
2024-01-09T15:33:53.319Z,101513.22
2024-01-09T15:36:21.751Z,101528.66
2024-01-09T15:38:50.387Z,101514.84
2024-01-09T15:41:21.549Z,101510.34
2024-01-09T15:43:51.579Z,101515.25
2024-01-09T15:46:25.106Z,101515.97
2024-01-09T15:48:54.914Z,101526.16
2024-01-09T15:51:24.117Z,101514.91
2024-01-09T15:53:52.690Z,101517.09
2024-01-09T15:56:21.915Z,101522.19
2024-01-09T15:58:52.678Z,101528.72
2024-01-09T16:01:21.839Z,101535.28
2024-01-09T16:03:54.852Z,101537.84
2024-01-09T16:06:24.195Z,101546.19
2024-01-09T16:08:53.184Z,101538.56
2024-01-09T16:11:22.188Z,101547.50
2024-01-09T16:13:52.357Z,101534.59
2024-01-09T16:16:23.492Z,101539.69
2024-01-09T16:18:54.759Z,101546.41
2024-01-09T16:21:23.230Z,101542.78
2024-01-09T16:23:52.271Z,101538.78
2024-01-09T16:26:20.702Z,101543.31
2024-01-09T16:28:49.160Z,101552.59
2024-01-09T16:31:20.419Z,101553.50
2024-01-09T16:33:49.197Z,101545.88
2024-01-09T16:36:18.042Z,101544.78
2024-01-09T16:38:46.541Z,101550.19
2024-01-09T16:41:15.598Z,101543.47
2024-01-09T16:43:44.117Z,101535.84
2024-01-09T16:46:13.449Z,101546.00
2024-01-09T16:48:48.883Z,101544.38
2024-01-09T16:51:21.482Z,101531.66
2024-01-09T16:53:51.085Z,101535.84
2024-01-09T16:56:24.368Z,101532.38
2024-01-09T16:58:54.165Z,101540.03
2024-01-09T17:01:23.918Z,101546.75
2024-01-09T17:03:54.139Z,101535.34
2024-01-09T17:06:24.226Z,101542.97
2024-01-09T17:08:53.735Z,101538.78
2024-01-09T17:11:22.707Z,101550.59
2024-01-09T17:13:53.540Z,101547.31
2024-01-09T17:16:23.162Z,101542.97
2024-01-09T17:18:53.195Z,101543.88
2024-01-09T17:21:21.804Z,101541.88
2024-01-09T17:23:50.672Z,101549.50
2024-01-09T17:26:19.534Z,101543.53
2024-01-09T17:28:48.105Z,101544.41
2024-01-09T17:31:16.521Z,101559.13
2024-01-09T17:33:45.001Z,101559.31
2024-01-09T17:36:15.124Z,101558.22
2024-01-09T17:38:45.618Z,101544.41
2024-01-09T17:41:14.596Z,101550.25
2024-01-09T17:43:43.177Z,101544.81
2024-01-09T17:46:11.843Z,101550.06
2024-01-09T17:48:40.474Z,101556.78
2024-01-09T17:51:09.197Z,101554.06
2024-01-09T17:53:39.106Z,101550.63
2024-01-09T17:56:08.393Z,101553.91
2024-01-09T17:58:39.123Z,101548.66
2024-01-09T18:01:08.551Z,101550.28
2024-01-09T18:03:37.054Z,101535.03
2024-01-09T18:06:05.893Z,101550.28
2024-01-09T18:08:36.339Z,101550.28
2024-01-09T18:11:06.724Z,101544.28
2024-01-09T18:13:35.203Z,101547.75
2024-01-09T18:16:04.450Z,101546.09
2024-01-09T18:18:34.807Z,101554.66
2024-01-09T18:21:06.199Z,101543.38
2024-01-09T18:23:35.380Z,101546.47
2024-01-09T18:26:11.062Z,101550.69
2024-01-09T18:28:43.740Z,101547.22
2024-01-09T18:31:13.909Z,101550.50
2024-01-09T18:33:45.104Z,101553.22
2024-01-09T18:36:13.616Z,101547.78
2024-01-09T18:38:42.100Z,101550.31
2024-01-09T18:41:12.179Z,101556.50
2024-01-09T18:43:41.293Z,101553.22
2024-01-09T18:46:10.129Z,101549.00
2024-01-09T18:48:38.719Z,101549.91
2024-01-09T18:51:07.548Z,101552.31
2024-01-09T18:53:36.498Z,101541.59
2024-01-09T18:56:05.197Z,101547.44
2024-01-09T18:58:35.213Z,101544.53
2024-01-09T19:01:05.208Z,101540.94
2024-01-09T19:03:34.428Z,101545.25
2024-01-09T19:06:04.414Z,101558.72
2024-01-09T19:08:32.880Z,101547.66
2024-01-09T19:11:02.516Z,101546.75
2024-01-09T19:13:31.328Z,101552.72
2024-01-09T19:16:01.982Z,101546.56
2024-01-09T19:18:30.660Z,101538.03
2024-01-09T19:20:59.145Z,101536.22
2024-01-09T19:23:28.210Z,101541.28
2024-01-09T19:25:58.396Z,101541.28
2024-01-09T19:28:27.115Z,101545.84
2024-01-09T19:30:55.746Z,101542.56
2024-01-09T19:33:25.797Z,101547.06
2024-01-09T19:35:54.330Z,101540.53
2024-01-09T19:38:23.105Z,101543.81
2024-01-09T19:40:51.948Z,101547.25
2024-01-09T19:43:25.808Z,101537.81
2024-01-09T19:45:54.548Z,101542.19
2024-01-09T19:48:23.112Z,101544.72
2024-01-09T19:50:52.987Z,101537.28
2024-01-09T19:53:21.735Z,101540.53
2024-01-09T19:55:50.281Z,101543.09
2024-01-09T19:58:20.154Z,101540.94
2024-01-09T20:00:48.632Z,101545.66
2024-01-09T20:03:17.167Z,101535.88
2024-01-09T20:05:45.756Z,101538.97
2024-01-09T20:08:15.717Z,101539.53
2024-01-09T20:10:44.279Z,101546.97
2024-01-09T20:13:13.298Z,101540.97
2024-01-09T20:15:41.726Z,101538.84
2024-01-09T20:18:10.470Z,101540.47
2024-01-09T20:20:38.962Z,101537.75
2024-01-09T20:23:08.498Z,101534.09
2024-01-09T20:25:39.794Z,101545.19
2024-01-09T20:28:08.603Z,101532.31
2024-01-09T20:30:37.189Z,101538.47
2024-01-09T20:33:06.444Z,101526.34
2024-01-09T20:35:35.654Z,101521.41
2024-01-09T20:38:05.806Z,101528.31
2024-01-09T20:40:34.830Z,101517.09
2024-01-09T20:43:04.997Z,101526.16
2024-01-09T20:45:33.754Z,101525.06
2024-01-09T20:48:03.666Z,101529.59
2024-01-09T20:50:33.378Z,101515.25
2024-01-09T20:53:02.087Z,101524.69
2024-01-09T20:55:31.234Z,101517.09
2024-01-09T20:57:59.755Z,101523.22
2024-01-09T21:00:29.719Z,101516.16
2024-01-09T21:02:58.344Z,101523.59
2024-01-09T21:05:27.465Z,101515.81
2024-01-09T21:07:57.565Z,101510.72
2024-01-09T21:10:26.186Z,101519.97
2024-01-09T21:12:54.757Z,101511.31
2024-01-09T21:15:23.928Z,101520.38
2024-01-09T21:17:54.830Z,101511.66
2024-01-09T21:20:23.508Z,101510.03
2024-01-09T21:22:52.526Z,101515.81
2024-01-09T21:25:21.444Z,101514.97
2024-01-09T21:27:50.634Z,101499.34
2024-01-09T21:30:19.299Z,101511.84
2024-01-09T21:32:48.641Z,101509.16
2024-01-09T21:35:18.576Z,101513.50
2024-01-09T21:37:48.436Z,101517.50
2024-01-09T21:40:17.021Z,101503.72
2024-01-09T21:42:46.518Z,101504.44
2024-01-09T21:45:33.304Z,101501.00
2024-01-09T21:48:22.208Z,101499.94
2024-01-09T21:51:12.304Z,101506.66
2024-01-09T21:53:40.685Z,101500.84
2024-01-09T21:56:09.380Z,101498.13
2024-01-09T21:58:37.779Z,101492.84
2024-01-09T22:01:06.470Z,101494.69
2024-01-09T22:03:35.068Z,101500.66
2024-01-09T22:06:04.061Z,101500.47
2024-01-09T22:08:34.001Z,101505.03
2024-01-09T22:11:04.729Z,101509.91
2024-01-09T22:13:34.029Z,101512.13
2024-01-09T22:16:02.471Z,101506.84
2024-01-09T22:18:31.036Z,101508.47
2024-01-09T22:20:59.773Z,101506.31
2024-01-09T22:23:28.236Z,101516.47
2024-01-09T22:25:58.166Z,101506.16
2024-01-09T22:28:26.737Z,101511.41
2024-01-09T22:30:56.013Z,101516.81
2024-01-09T22:33:24.822Z,101505.56
2024-01-09T22:35:53.370Z,101511.41
2024-01-09T22:38:21.946Z,101508.28
2024-01-09T22:40:50.535Z,101514.28
2024-01-09T22:43:20.373Z,101503.41
2024-01-09T22:45:49.320Z,101510.28
2024-01-09T22:48:17.761Z,101515.38
2024-01-09T22:50:46.504Z,101510.28
2024-01-09T22:53:15.691Z,101500.13
2024-01-09T22:55:45.553Z,101496.50
2024-01-09T22:58:14.226Z,101510.84
2024-01-09T23:00:44.190Z,101504.13
2024-01-09T23:03:12.754Z,101500.50
2024-01-09T23:05:41.475Z,101498.31
2024-01-09T23:08:10.177Z,101495.78
2024-01-09T23:10:38.727Z,101500.13
2024-01-09T23:13:07.140Z,101494.16
2024-01-09T23:15:36.221Z,101490.53
2024-01-09T23:18:07.345Z,101498.31
2024-01-09T23:20:36.337Z,101481.84
2024-01-09T23:23:06.207Z,101490.53
2024-01-09T23:25:34.832Z,101486.75
2024-01-09T23:28:03.476Z,101499.03
2024-01-09T23:30:32.085Z,101490.53
2024-01-09T23:33:01.080Z,101494.16
2024-01-09T23:35:32.086Z,101489.97
2024-01-09T23:38:00.690Z,101489.97
2024-01-09T23:40:31.660Z,101485.81
2024-01-09T23:43:00.550Z,101493.44
2024-01-09T23:45:29.009Z,101489.25
2024-01-09T23:47:57.585Z,101486.72
2024-01-09T23:50:26.240Z,101484.72
2024-01-09T23:52:56.127Z,101476.38
2024-01-09T23:55:24.903Z,101477.81
2024-01-09T23:57:53.354Z,101467.34
